Terminal Aerodrome Forecast
Issued by NWS

Home | Current Version | Previous Version | Text Only | Print | Product List | Glossary On
Versions: 1 2 3 4 5 6 7 8 9 10 11 12 13 14 15 16 17 18 19 20 21 22 23 24 25 26 27 28 29 30 31 32 33 34 35
000
FTAK31 PANC 050154 AAB
TAFADL
TAF AMD
PADL 050154Z 0502/0524 10011KT 3SM -RA BR SCT006 OVC020
      TEMPO 0502/0503 2SM -RA BR BKN006
     FM050300 12011KT P6SM VCSH BKN015 OVC030
     FM051200 06010KT P6SM SCT035 BKN060
     FM052100 07015G22KT P6SM SCT040 OVC070=

USA.gov is the U.S. government's official web portal to all federal, state and local government web resources and services.